sensor_id;sensor_type;location;lat;lon;timestamp;P1;durP1;ratioP1;P2;durP2;ratioP2
56183;SDS011;42086;53.170;6.980;2022-08-19T00:00:20;9.48;;;7.28;;
56183;SDS011;42086;53.170;6.980;2022-08-19T00:02:46;10.45;;;7.47;;
56183;SDS011;42086;53.170;6.980;2022-08-19T00:05:13;7.90;;;5.65;;
56183;SDS011;42086;53.170;6.980;2022-08-19T00:07:41;5.88;;;4.70;;
56183;SDS011;42086;53.170;6.980;2022-08-19T00:10:09;86.25;;;5.63;;
56183;SDS011;42086;53.170;6.980;2022-08-19T00:12:37;4.53;;;3.80;;
56183;SDS011;42086;53.170;6.980;2022-08-19T00:15:04;19.45;;;3.83;;
56183;SDS011;42086;53.170;6.980;2022-08-19T00:17:44;6.97;;;3.20;;
56183;SDS011;42086;53.170;6.980;2022-08-19T00:20:11;5.50;;;3.70;;
56183;SDS011;42086;53.170;6.980;2022-08-19T00:25:07;46.85;;;9.48;;
56183;SDS011;42086;53.170;6.980;2022-08-19T00:27:33;9.48;;;6.53;;
56183;SDS011;42086;53.170;6.980;2022-08-19T00:30:00;11.60;;;7.55;;
56183;SDS011;42086;53.170;6.980;2022-08-19T00:32:28;14.13;;;8.50;;
56183;SDS011;42086;53.170;6.980;2022-08-19T00:34:54;10.80;;;7.50;;
56183;SDS011;42086;53.170;6.980;2022-08-19T00:37:23;10.25;;;6.80;;
56183;SDS011;42086;53.170;6.980;2022-08-19T00:39:51;8.68;;;6.85;;
56183;SDS011;42086;53.170;6.980;2022-08-19T00:42:19;10.05;;;7.43;;
56183;SDS011;42086;53.170;6.980;2022-08-19T00:44:45;9.35;;;7.05;;
56183;SDS011;42086;53.170;6.980;2022-08-19T00:47:12;8.68;;;5.60;;
56183;SDS011;42086;53.170;6.980;2022-08-19T00:49:47;7.45;;;6.18;;
56183;SDS011;42086;53.170;6.980;2022-08-19T00:54:57;106.68;;;8.48;;
56183;SDS011;42086;53.170;6.980;2022-08-19T00:57:31;14.10;;;3.85;;
56183;SDS011;42086;53.170;6.980;2022-08-19T01:00:00;6.03;;;3.85;;
56183;SDS011;42086;53.170;6.980;2022-08-19T01:02:27;7.70;;;5.13;;
56183;SDS011;42086;53.170;6.980;2022-08-19T01:04:54;8.02;;;5.15;;
56183;SDS011;42086;53.170;6.980;2022-08-19T01:07:21;8.40;;;5.80;;
56183;SDS011;42086;53.170;6.980;2022-08-19T01:09:47;8.20;;;6.38;;
56183;SDS011;42086;53.170;6.980;2022-08-19T01:12:13;10.93;;;7.72;;
56183;SDS011;42086;53.170;6.980;2022-08-19T01:14:40;9.70;;;5.97;;
56183;SDS011;42086;53.170;6.980;2022-08-19T01:17:07;11.48;;;7.03;;
56183;SDS011;42086;53.170;6.980;2022-08-19T01:19:36;6.82;;;4.93;;
56183;SDS011;42086;53.170;6.980;2022-08-19T01:22:49;5.45;;;3.88;;
56183;SDS011;42086;53.170;6.980;2022-08-19T01:25:02;9.07;;;4.88;;
56183;SDS011;42086;53.170;6.980;2022-08-19T01:27:36;11.13;;;3.90;;
56183;SDS011;42086;53.170;6.980;2022-08-19T01:30:05;136.95;;;7.53;;
56183;SDS011;42086;53.170;6.980;2022-08-19T01:32:31;54.40;;;7.57;;
56183;SDS011;42086;53.170;6.980;2022-08-19T01:34:57;19.95;;;7.30;;
56183;SDS011;42086;53.170;6.980;2022-08-19T01:37:27;10.30;;;6.97;;
56183;SDS011;42086;53.170;6.980;2022-08-19T01:39:53;14.63;;;8.80;;
56183;SDS011;42086;53.170;6.980;2022-08-19T01:42:19;11.13;;;7.82;;
56183;SDS011;42086;53.170;6.980;2022-08-19T01:44:46;8.57;;;5.97;;
56183;SDS011;42086;53.170;6.980;2022-08-19T01:47:13;4.72;;;2.90;;
56183;SDS011;42086;53.170;6.980;2022-08-19T01:49:38;7.80;;;5.97;;
56183;SDS011;42086;53.170;6.980;2022-08-19T01:52:05;11.18;;;4.07;;
56183;SDS011;42086;53.170;6.980;2022-08-19T01:54:31;6.70;;;4.05;;
56183;SDS011;42086;53.170;6.980;2022-08-19T01:57:05;5.00;;;3.53;;
56183;SDS011;42086;53.170;6.980;2022-08-19T01:59:33;5.53;;;3.55;;
56183;SDS011;42086;53.170;6.980;2022-08-19T02:02:02;16.30;;;5.05;;
56183;SDS011;42086;53.170;6.980;2022-08-19T02:04:32;8.05;;;4.55;;
56183;SDS011;42086;53.170;6.980;2022-08-19T02:06:59;22.73;;;3.65;;
56183;SDS011;42086;53.170;6.980;2022-08-19T02:09:25;11.13;;;6.22;;
56183;SDS011;42086;53.170;6.980;2022-08-19T02:11:51;9.93;;;6.72;;
56183;SDS011;42086;53.170;6.980;2022-08-19T02:14:18;10.77;;;7.93;;
56183;SDS011;42086;53.170;6.980;2022-08-19T02:16:44;11.77;;;7.75;;
56183;SDS011;42086;53.170;6.980;2022-08-19T02:19:10;9.30;;;6.38;;
56183;SDS011;42086;53.170;6.980;2022-08-19T02:21:36;7.18;;;4.80;;
56183;SDS011;42086;53.170;6.980;2022-08-19T02:24:02;16.80;;;4.60;;
56183;SDS011;42086;53.170;6.980;2022-08-19T02:26:28;38.65;;;4.30;;
56183;SDS011;42086;53.170;6.980;2022-08-19T02:28:54;9.18;;;5.70;;
56183;SDS011;42086;53.170;6.980;2022-08-19T02:31:21;8.43;;;5.97;;
56183;SDS011;42086;53.170;6.980;2022-08-19T02:33:49;11.55;;;7.65;;
56183;SDS011;42086;53.170;6.980;2022-08-19T02:36:17;14.25;;;8.35;;
56183;SDS011;42086;53.170;6.980;2022-08-19T02:38:43;11.63;;;7.82;;
56183;SDS011;42086;53.170;6.980;2022-08-19T02:41:17;7.32;;;5.13;;
56183;SDS011;42086;53.170;6.980;2022-08-19T02:43:45;8.50;;;4.90;;
56183;SDS011;42086;53.170;6.980;2022-08-19T02:46:21;12.93;;;7.07;;
56183;SDS011;42086;53.170;6.980;2022-08-19T02:48:51;9.30;;;5.57;;
56183;SDS011;42086;53.170;6.980;2022-08-19T02:51:19;45.00;;;4.68;;
56183;SDS011;42086;53.170;6.980;2022-08-19T02:53:47;11.15;;;2.42;;
56183;SDS011;42086;53.170;6.980;2022-08-19T02:56:13;17.95;;;7.72;;
56183;SDS011;42086;53.170;6.980;2022-08-19T02:58:40;13.45;;;7.80;;
56183;SDS011;42086;53.170;6.980;2022-08-19T03:01:06;14.55;;;8.35;;
56183;SDS011;42086;53.170;6.980;2022-08-19T03:03:32;18.50;;;10.07;;
56183;SDS011;42086;53.170;6.980;2022-08-19T03:06:03;21.00;;;10.63;;
56183;SDS011;42086;53.170;6.980;2022-08-19T03:08:43;23.02;;;12.07;;
56183;SDS011;42086;53.170;6.980;2022-08-19T03:11:18;58.05;;;10.10;;
56183;SDS011;42086;53.170;6.980;2022-08-19T03:13:46;44.80;;;9.40;;
56183;SDS011;42086;53.170;6.980;2022-08-19T03:16:14;12.48;;;7.18;;
56183;SDS011;42086;53.170;6.980;2022-08-19T03:18:41;20.15;;;9.77;;
56183;SDS011;42086;53.170;6.980;2022-08-19T03:21:07;13.13;;;7.13;;
56183;SDS011;42086;53.170;6.980;2022-08-19T03:23:33;5.07;;;3.40;;
56183;SDS011;42086;53.170;6.980;2022-08-19T03:26:02;64.15;;;6.28;;
56183;SDS011;42086;53.170;6.980;2022-08-19T03:28:30;153.73;;;10.20;;
56183;SDS011;42086;53.170;6.980;2022-08-19T03:31:01;67.57;;;10.80;;
56183;SDS011;42086;53.170;6.980;2022-08-19T03:33:34;24.88;;;9.40;;
56183;SDS011;42086;53.170;6.980;2022-08-19T03:36:01;26.85;;;9.98;;
56183;SDS011;42086;53.170;6.980;2022-08-19T03:38:40;57.90;;;10.73;;
56183;SDS011;42086;53.170;6.980;2022-08-19T03:41:10;44.72;;;9.10;;
56183;SDS011;42086;53.170;6.980;2022-08-19T03:43:38;104.00;;;8.38;;
56183;SDS011;42086;53.170;6.980;2022-08-19T03:46:10;102.93;;;10.43;;
56183;SDS011;42086;53.170;6.980;2022-08-19T03:48:37;24.95;;;9.65;;
56183;SDS011;42086;53.170;6.980;2022-08-19T03:51:05;71.32;;;5.78;;
56183;SDS011;42086;53.170;6.980;2022-08-19T03:53:32;6.05;;;3.35;;
56183;SDS011;42086;53.170;6.980;2022-08-19T03:56:00;4.63;;;3.30;;
56183;SDS011;42086;53.170;6.980;2022-08-19T03:58:27;17.48;;;3.47;;
56183;SDS011;42086;53.170;6.980;2022-08-19T04:00:55;70.38;;;5.90;;
56183;SDS011;42086;53.170;6.980;2022-08-19T04:03:22;87.93;;;6.20;;
56183;SDS011;42086;53.170;6.980;2022-08-19T04:05:49;36.22;;;4.70;;
56183;SDS011;42086;53.170;6.980;2022-08-19T04:08:15;21.05;;;4.55;;
56183;SDS011;42086;53.170;6.980;2022-08-19T04:10:45;11.98;;;5.55;;
56183;SDS011;42086;53.170;6.980;2022-08-19T04:13:12;9.13;;;5.20;;
56183;SDS011;42086;53.170;6.980;2022-08-19T04:15:40;8.50;;;4.60;;
56183;SDS011;42086;53.170;6.980;2022-08-19T04:18:10;3.67;;;2.58;;
56183;SDS011;42086;53.170;6.980;2022-08-19T04:20:46;7.30;;;3.67;;
56183;SDS011;42086;53.170;6.980;2022-08-19T04:23:13;17.55;;;6.00;;
56183;SDS011;42086;53.170;6.980;2022-08-19T04:25:40;160.93;;;10.60;;
56183;SDS011;42086;53.170;6.980;2022-08-19T04:28:08;29.65;;;5.60;;
56183;SDS011;42086;53.170;6.980;2022-08-19T04:30:40;93.80;;;7.28;;
56183;SDS011;42086;53.170;6.980;2022-08-19T04:33:13;53.17;;;7.55;;
56183;SDS011;42086;53.170;6.980;2022-08-19T04:35:41;41.08;;;8.13;;
56183;SDS011;42086;53.170;6.980;2022-08-19T04:38:09;18.63;;;8.43;;
56183;SDS011;42086;53.170;6.980;2022-08-19T04:40:39;17.63;;;8.57;;
56183;SDS011;42086;53.170;6.980;2022-08-19T04:43:25;45.22;;;7.93;;
56183;SDS011;42086;53.170;6.980;2022-08-19T04:45:51;14.15;;;7.65;;
56183;SDS011;42086;53.170;6.980;2022-08-19T04:48:17;20.10;;;8.90;;
56183;SDS011;42086;53.170;6.980;2022-08-19T04:50:51;19.48;;;9.38;;
56183;SDS011;42086;53.170;6.980;2022-08-19T04:53:23;15.73;;;8.90;;
56183;SDS011;42086;53.170;6.980;2022-08-19T04:55:57;18.83;;;8.48;;
56183;SDS011;42086;53.170;6.980;2022-08-19T04:58:25;12.90;;;7.55;;
56183;SDS011;42086;53.170;6.980;2022-08-19T05:00:52;14.65;;;7.75;;
56183;SDS011;42086;53.170;6.980;2022-08-19T05:03:19;13.45;;;7.53;;
56183;SDS011;42086;53.170;6.980;2022-08-19T05:05:45;8.63;;;5.75;;
56183;SDS011;42086;53.170;6.980;2022-08-19T05:08:18;7.63;;;4.97;;
56183;SDS011;42086;53.170;6.980;2022-08-19T05:10:48;6.05;;;4.30;;
56183;SDS011;42086;53.170;6.980;2022-08-19T05:13:17;13.65;;;3.75;;
56183;SDS011;42086;53.170;6.980;2022-08-19T05:15:44;9.95;;;4.50;;
56183;SDS011;42086;53.170;6.980;2022-08-19T05:18:18;24.00;;;5.35;;
56183;SDS011;42086;53.170;6.980;2022-08-19T05:21:07;13.07;;;7.55;;
56183;SDS011;42086;53.170;6.980;2022-08-19T05:23:52;12.70;;;6.82;;
56183;SDS011;42086;53.170;6.980;2022-08-19T05:26:18;15.52;;;8.35;;
56183;SDS011;42086;53.170;6.980;2022-08-19T05:28:44;21.80;;;10.15;;
56183;SDS011;42086;53.170;6.980;2022-08-19T05:31:10;20.08;;;9.98;;
56183;SDS011;42086;53.170;6.980;2022-08-19T05:33:36;24.45;;;11.88;;
56183;SDS011;42086;53.170;6.980;2022-08-19T05:36:02;24.48;;;12.23;;
56183;SDS011;42086;53.170;6.980;2022-08-19T05:38:29;26.50;;;12.05;;
56183;SDS011;42086;53.170;6.980;2022-08-19T05:40:55;26.42;;;12.80;;
56183;SDS011;42086;53.170;6.980;2022-08-19T05:43:21;23.63;;;11.38;;
56183;SDS011;42086;53.170;6.980;2022-08-19T05:45:47;22.90;;;12.30;;
56183;SDS011;42086;53.170;6.980;2022-08-19T05:48:13;21.35;;;11.85;;
56183;SDS011;42086;53.170;6.980;2022-08-19T05:50:40;25.80;;;12.23;;
56183;SDS011;42086;53.170;6.980;2022-08-19T05:53:06;23.25;;;12.60;;
56183;SDS011;42086;53.170;6.980;2022-08-19T05:55:34;24.85;;;12.50;;
56183;SDS011;42086;53.170;6.980;2022-08-19T05:58:03;27.13;;;12.80;;
56183;SDS011;42086;53.170;6.980;2022-08-19T06:00:29;24.55;;;12.93;;
56183;SDS011;42086;53.170;6.980;2022-08-19T06:02:56;24.88;;;12.75;;
56183;SDS011;42086;53.170;6.980;2022-08-19T06:05:28;25.35;;;13.02;;
56183;SDS011;42086;53.170;6.980;2022-08-19T06:07:57;24.15;;;12.70;;
56183;SDS011;42086;53.170;6.980;2022-08-19T06:10:24;21.42;;;12.07;;
56183;SDS011;42086;53.170;6.980;2022-08-19T06:12:51;23.83;;;12.45;;
56183;SDS011;42086;53.170;6.980;2022-08-19T06:15:18;21.67;;;12.13;;
56183;SDS011;42086;53.170;6.980;2022-08-19T06:17:44;20.25;;;11.57;;
56183;SDS011;42086;53.170;6.980;2022-08-19T06:20:11;19.85;;;11.70;;
56183;SDS011;42086;53.170;6.980;2022-08-19T06:22:40;22.27;;;12.80;;
56183;SDS011;42086;53.170;6.980;2022-08-19T06:25:06;19.65;;;11.30;;
56183;SDS011;42086;53.170;6.980;2022-08-19T06:27:34;21.85;;;12.52;;
56183;SDS011;42086;53.170;6.980;2022-08-19T06:30:01;22.67;;;12.70;;
56183;SDS011;42086;53.170;6.980;2022-08-19T06:32:28;18.95;;;11.80;;
56183;SDS011;42086;53.170;6.980;2022-08-19T06:34:55;20.73;;;12.02;;
56183;SDS011;42086;53.170;6.980;2022-08-19T06:37:21;19.67;;;11.75;;
56183;SDS011;42086;53.170;6.980;2022-08-19T06:39:47;20.92;;;12.18;;
56183;SDS011;42086;53.170;6.980;2022-08-19T06:42:14;19.08;;;12.38;;
56183;SDS011;42086;53.170;6.980;2022-08-19T06:44:44;18.30;;;11.93;;
56183;SDS011;42086;53.170;6.980;2022-08-19T06:47:14;20.65;;;12.55;;
56183;SDS011;42086;53.170;6.980;2022-08-19T06:49:42;22.13;;;12.38;;
56183;SDS011;42086;53.170;6.980;2022-08-19T06:52:08;19.52;;;12.60;;
56183;SDS011;42086;53.170;6.980;2022-08-19T06:54:37;20.77;;;12.15;;
56183;SDS011;42086;53.170;6.980;2022-08-19T06:57:04;18.80;;;11.88;;
56183;SDS011;42086;53.170;6.980;2022-08-19T06:59:32;20.05;;;11.77;;
56183;SDS011;42086;53.170;6.980;2022-08-19T07:01:59;16.73;;;11.60;;
56183;SDS011;42086;53.170;6.980;2022-08-19T07:04:30;18.45;;;12.52;;
56183;SDS011;42086;53.170;6.980;2022-08-19T07:07:05;17.45;;;12.15;;
56183;SDS011;42086;53.170;6.980;2022-08-19T07:09:33;15.77;;;11.45;;
56183;SDS011;42086;53.170;6.980;2022-08-19T07:12:02;18.13;;;11.15;;
56183;SDS011;42086;53.170;6.980;2022-08-19T07:14:30;18.13;;;12.15;;
56183;SDS011;42086;53.170;6.980;2022-08-19T07:16:56;19.98;;;11.52;;
56183;SDS011;42086;53.170;6.980;2022-08-19T07:19:23;14.63;;;10.75;;
56183;SDS011;42086;53.170;6.980;2022-08-19T07:21:53;18.35;;;11.48;;
56183;SDS011;42086;53.170;6.980;2022-08-19T07:24:20;12.95;;;10.63;;
56183;SDS011;42086;53.170;6.980;2022-08-19T07:26:49;17.75;;;11.70;;
56183;SDS011;42086;53.170;6.980;2022-08-19T07:29:16;16.00;;;11.20;;
56183;SDS011;42086;53.170;6.980;2022-08-19T07:31:43;15.65;;;11.35;;
56183;SDS011;42086;53.170;6.980;2022-08-19T07:34:09;16.95;;;11.38;;
56183;SDS011;42086;53.170;6.980;2022-08-19T07:36:39;20.13;;;11.63;;
56183;SDS011;42086;53.170;6.980;2022-08-19T07:39:08;16.80;;;11.88;;
56183;SDS011;42086;53.170;6.980;2022-08-19T07:41:36;16.35;;;11.40;;
56183;SDS011;42086;53.170;6.980;2022-08-19T07:44:03;21.10;;;13.13;;
56183;SDS011;42086;53.170;6.980;2022-08-19T07:46:34;21.20;;;13.40;;
56183;SDS011;42086;53.170;6.980;2022-08-19T07:49:03;21.02;;;14.30;;
56183;SDS011;42086;53.170;6.980;2022-08-19T07:51:30;18.77;;;12.98;;
56183;SDS011;42086;53.170;6.980;2022-08-19T07:53:56;20.27;;;12.80;;
56183;SDS011;42086;53.170;6.980;2022-08-19T07:56:22;18.25;;;12.98;;
56183;SDS011;42086;53.170;6.980;2022-08-19T07:58:49;18.85;;;11.27;;
56183;SDS011;42086;53.170;6.980;2022-08-19T08:01:22;16.48;;;11.27;;
56183;SDS011;42086;53.170;6.980;2022-08-19T08:03:50;18.40;;;11.70;;
56183;SDS011;42086;53.170;6.980;2022-08-19T08:06:36;13.75;;;10.45;;
56183;SDS011;42086;53.170;6.980;2022-08-19T08:09:25;13.90;;;10.45;;
56183;SDS011;42086;53.170;6.980;2022-08-19T08:12:01;14.45;;;9.50;;
56183;SDS011;42086;53.170;6.980;2022-08-19T08:14:32;11.70;;;9.07;;
56183;SDS011;42086;53.170;6.980;2022-08-19T08:17:02;9.70;;;8.45;;
56183;SDS011;42086;53.170;6.980;2022-08-19T08:19:29;10.98;;;8.55;;
56183;SDS011;42086;53.170;6.980;2022-08-19T08:21:56;13.15;;;9.38;;
56183;SDS011;42086;53.170;6.980;2022-08-19T08:24:24;12.50;;;9.48;;
56183;SDS011;42086;53.170;6.980;2022-08-19T08:26:52;11.65;;;9.40;;
56183;SDS011;42086;53.170;6.980;2022-08-19T08:29:18;11.80;;;9.40;;
56183;SDS011;42086;53.170;6.980;2022-08-19T08:31:44;13.18;;;9.65;;
56183;SDS011;42086;53.170;6.980;2022-08-19T08:34:12;13.43;;;10.02;;
56183;SDS011;42086;53.170;6.980;2022-08-19T08:36:40;13.02;;;9.50;;
56183;SDS011;42086;53.170;6.980;2022-08-19T08:39:10;12.30;;;9.80;;
56183;SDS011;42086;53.170;6.980;2022-08-19T08:44:21;13.10;;;9.43;;
56183;SDS011;42086;53.170;6.980;2022-08-19T08:47:00;10.57;;;8.50;;
56183;SDS011;42086;53.170;6.980;2022-08-19T08:49:45;9.40;;;8.20;;
56183;SDS011;42086;53.170;6.980;2022-08-19T08:52:36;11.27;;;9.00;;
56183;SDS011;42086;53.170;6.980;2022-08-19T08:55:44;12.15;;;8.55;;
56183;SDS011;42086;53.170;6.980;2022-08-19T09:00:22;12.73;;;9.20;;
56183;SDS011;42086;53.170;6.980;2022-08-19T09:02:52;14.23;;;9.65;;
56183;SDS011;42086;53.170;6.980;2022-08-19T09:05:19;14.60;;;10.38;;
56183;SDS011;42086;53.170;6.980;2022-08-19T09:07:53;13.55;;;10.05;;
56183;SDS011;42086;53.170;6.980;2022-08-19T09:10:37;13.43;;;10.05;;
56183;SDS011;42086;53.170;6.980;2022-08-19T09:13:18;12.80;;;10.30;;
56183;SDS011;42086;53.170;6.980;2022-08-19T09:16:02;11.73;;;9.73;;
56183;SDS011;42086;53.170;6.980;2022-08-19T09:18:39;12.43;;;9.77;;
56183;SDS011;42086;53.170;6.980;2022-08-19T09:21:07;13.60;;;9.50;;
56183;SDS011;42086;53.170;6.980;2022-08-19T09:23:34;12.80;;;8.95;;
56183;SDS011;42086;53.170;6.980;2022-08-19T09:26:04;14.13;;;9.77;;
56183;SDS011;42086;53.170;6.980;2022-08-19T09:28:33;11.60;;;9.18;;
56183;SDS011;42086;53.170;6.980;2022-08-19T09:30:59;10.13;;;9.00;;
56183;SDS011;42086;53.170;6.980;2022-08-19T09:33:25;9.32;;;8.32;;
56183;SDS011;42086;53.170;6.980;2022-08-19T09:36:00;12.23;;;8.57;;
56183;SDS011;42086;53.170;6.980;2022-08-19T09:38:28;9.10;;;7.90;;
56183;SDS011;42086;53.170;6.980;2022-08-19T09:40:54;10.00;;;7.90;;
56183;SDS011;42086;53.170;6.980;2022-08-19T09:43:20;12.40;;;8.73;;
56183;SDS011;42086;53.170;6.980;2022-08-19T09:45:46;8.77;;;7.88;;
56183;SDS011;42086;53.170;6.980;2022-08-19T09:48:14;9.45;;;8.23;;
56183;SDS011;42086;53.170;6.980;2022-08-19T09:50:40;10.13;;;8.10;;
56183;SDS011;42086;53.170;6.980;2022-08-19T09:53:06;11.80;;;7.90;;
56183;SDS011;42086;53.170;6.980;2022-08-19T09:55:32;8.25;;;6.40;;
56183;SDS011;42086;53.170;6.980;2022-08-19T09:58:01;6.43;;;5.82;;
56183;SDS011;42086;53.170;6.980;2022-08-19T10:00:27;8.88;;;7.22;;
56183;SDS011;42086;53.170;6.980;2022-08-19T10:02:55;8.13;;;7.28;;
56183;SDS011;42086;53.170;6.980;2022-08-19T10:05:21;7.65;;;6.65;;
56183;SDS011;42086;53.170;6.980;2022-08-19T10:08:05;8.65;;;6.60;;
56183;SDS011;42086;53.170;6.980;2022-08-19T10:10:34;6.57;;;5.32;;
56183;SDS011;42086;53.170;6.980;2022-08-19T10:13:01;5.00;;;4.50;;
56183;SDS011;42086;53.170;6.980;2022-08-19T10:15:26;5.97;;;5.18;;
56183;SDS011;42086;53.170;6.980;2022-08-19T10:17:52;4.95;;;4.30;;
56183;SDS011;42086;53.170;6.980;2022-08-19T10:20:18;5.50;;;4.40;;
56183;SDS011;42086;53.170;6.980;2022-08-19T10:22:44;5.43;;;4.57;;
56183;SDS011;42086;53.170;6.980;2022-08-19T10:25:10;5.75;;;4.60;;
56183;SDS011;42086;53.170;6.980;2022-08-19T10:27:36;5.32;;;4.82;;
56183;SDS011;42086;53.170;6.980;2022-08-19T10:30:03;5.32;;;4.22;;
56183;SDS011;42086;53.170;6.980;2022-08-19T10:32:30;4.93;;;3.97;;
56183;SDS011;42086;53.170;6.980;2022-08-19T10:34:56;4.47;;;4.07;;
56183;SDS011;42086;53.170;6.980;2022-08-19T10:37:22;4.57;;;3.47;;
56183;SDS011;42086;53.170;6.980;2022-08-19T10:39:48;4.15;;;3.17;;
56183;SDS011;42086;53.170;6.980;2022-08-19T10:42:14;4.70;;;3.00;;
56183;SDS011;42086;53.170;6.980;2022-08-19T10:44:41;4.32;;;3.20;;
56183;SDS011;42086;53.170;6.980;2022-08-19T10:47:07;3.53;;;3.22;;
56183;SDS011;42086;53.170;6.980;2022-08-19T10:49:33;3.10;;;2.88;;
56183;SDS011;42086;53.170;6.980;2022-08-19T10:52:19;4.50;;;3.45;;
56183;SDS011;42086;53.170;6.980;2022-08-19T10:55:04;4.15;;;3.03;;
56183;SDS011;42086;53.170;6.980;2022-08-19T10:57:49;3.80;;;3.50;;
56183;SDS011;42086;53.170;6.980;2022-08-19T11:00:18;5.50;;;3.70;;
56183;SDS011;42086;53.170;6.980;2022-08-19T11:02:45;5.05;;;4.07;;
56183;SDS011;42086;53.170;6.980;2022-08-19T11:05:12;4.50;;;3.90;;
56183;SDS011;42086;53.170;6.980;2022-08-19T11:07:40;4.47;;;3.78;;
56183;SDS011;42086;53.170;6.980;2022-08-19T11:10:09;5.05;;;4.45;;
56183;SDS011;42086;53.170;6.980;2022-08-19T11:12:38;5.30;;;4.78;;
56183;SDS011;42086;53.170;6.980;2022-08-19T11:15:06;6.63;;;4.65;;
56183;SDS011;42086;53.170;6.980;2022-08-19T11:17:34;5.55;;;5.05;;
56183;SDS011;42086;53.170;6.980;2022-08-19T11:20:01;6.38;;;4.85;;
56183;SDS011;42086;53.170;6.980;2022-08-19T11:22:30;4.70;;;4.30;;
56183;SDS011;42086;53.170;6.980;2022-08-19T11:24:56;5.32;;;4.82;;
56183;SDS011;42086;53.170;6.980;2022-08-19T11:27:21;5.25;;;4.75;;
56183;SDS011;42086;53.170;6.980;2022-08-19T11:29:47;6.30;;;5.00;;
56183;SDS011;42086;53.170;6.980;2022-08-19T11:32:13;6.30;;;5.70;;
56183;SDS011;42086;53.170;6.980;2022-08-19T11:34:40;7.25;;;6.03;;
56183;SDS011;42086;53.170;6.980;2022-08-19T11:37:06;7.65;;;6.03;;
56183;SDS011;42086;53.170;6.980;2022-08-19T11:39:34;6.50;;;5.55;;
56183;SDS011;42086;53.170;6.980;2022-08-19T11:42:02;6.63;;;5.47;;
56183;SDS011;42086;53.170;6.980;2022-08-19T11:44:49;6.68;;;5.22;;
56183;SDS011;42086;53.170;6.980;2022-08-19T11:47:16;5.28;;;4.78;;
56183;SDS011;42086;53.170;6.980;2022-08-19T11:49:42;6.30;;;5.70;;
56183;SDS011;42086;53.170;6.980;2022-08-19T11:52:08;8.10;;;5.50;;
56183;SDS011;42086;53.170;6.980;2022-08-19T11:54:34;6.35;;;5.70;;
56183;SDS011;42086;53.170;6.980;2022-08-19T11:57:02;5.93;;;5.30;;
56183;SDS011;42086;53.170;6.980;2022-08-19T11:59:28;8.07;;;5.85;;
56183;SDS011;42086;53.170;6.980;2022-08-19T12:01:55;7.78;;;5.78;;
56183;SDS011;42086;53.170;6.980;2022-08-19T12:04:23;7.03;;;6.35;;
56183;SDS011;42086;53.170;6.980;2022-08-19T12:06:49;6.97;;;6.15;;
56183;SDS011;42086;53.170;6.980;2022-08-19T12:09:15;6.90;;;6.00;;
56183;SDS011;42086;53.170;6.980;2022-08-19T12:11:42;7.30;;;6.60;;
56183;SDS011;42086;53.170;6.980;2022-08-19T12:14:09;6.45;;;5.85;;
56183;SDS011;42086;53.170;6.980;2022-08-19T12:16:38;6.70;;;6.00;;
56183;SDS011;42086;53.170;6.980;2022-08-19T12:19:04;6.18;;;5.68;;
56183;SDS011;42086;53.170;6.980;2022-08-19T12:21:32;6.72;;;5.88;;
56183;SDS011;42086;53.170;6.980;2022-08-19T12:24:00;7.50;;;6.78;;
56183;SDS011;42086;53.170;6.980;2022-08-19T12:26:27;8.32;;;6.53;;
56183;SDS011;42086;53.170;6.980;2022-08-19T12:28:54;8.20;;;6.55;;
56183;SDS011;42086;53.170;6.980;2022-08-19T12:31:20;8.00;;;7.20;;
56183;SDS011;42086;53.170;6.980;2022-08-19T12:33:47;7.05;;;6.35;;
56183;SDS011;42086;53.170;6.980;2022-08-19T12:36:13;7.00;;;6.40;;
56183;SDS011;42086;53.170;6.980;2022-08-19T12:38:41;6.75;;;6.05;;
56183;SDS011;42086;53.170;6.980;2022-08-19T12:41:09;9.35;;;7.00;;
56183;SDS011;42086;53.170;6.980;2022-08-19T12:43:37;8.07;;;7.30;;
56183;SDS011;42086;53.170;6.980;2022-08-19T12:46:04;8.30;;;7.50;;
56183;SDS011;42086;53.170;6.980;2022-08-19T12:48:33;9.23;;;8.32;;
56183;SDS011;42086;53.170;6.980;2022-08-19T12:51:00;9.10;;;8.20;;
56183;SDS011;42086;53.170;6.980;2022-08-19T12:53:30;8.60;;;7.80;;
56183;SDS011;42086;53.170;6.980;2022-08-19T12:55:57;8.48;;;7.53;;
56183;SDS011;42086;53.170;6.980;2022-08-19T12:58:25;8.20;;;7.38;;
56183;SDS011;42086;53.170;6.980;2022-08-19T13:00:52;7.75;;;7.05;;
56183;SDS011;42086;53.170;6.980;2022-08-19T13:03:18;8.60;;;7.70;;
56183;SDS011;42086;53.170;6.980;2022-08-19T13:05:44;8.73;;;7.85;;
56183;SDS011;42086;53.170;6.980;2022-08-19T13:08:09;8.73;;;7.68;;
56183;SDS011;42086;53.170;6.980;2022-08-19T13:10:36;9.68;;;8.18;;
56183;SDS011;42086;53.170;6.980;2022-08-19T13:13:05;9.10;;;7.63;;
56183;SDS011;42086;53.170;6.980;2022-08-19T13:15:37;9.73;;;7.85;;
56183;SDS011;42086;53.170;6.980;2022-08-19T13:18:05;7.60;;;6.80;;
56183;SDS011;42086;53.170;6.980;2022-08-19T13:20:32;7.82;;;7.00;;
56183;SDS011;42086;53.170;6.980;2022-08-19T13:22:58;8.45;;;7.65;;
56183;SDS011;42086;53.170;6.980;2022-08-19T13:25:24;8.48;;;7.68;;
56183;SDS011;42086;53.170;6.980;2022-08-19T13:27:51;9.32;;;8.43;;
56183;SDS011;42086;53.170;6.980;2022-08-19T13:30:18;9.77;;;8.88;;
56183;SDS011;42086;53.170;6.980;2022-08-19T13:33:03;9.38;;;8.57;;
56183;SDS011;42086;53.170;6.980;2022-08-19T13:35:36;10.65;;;9.52;;
56183;SDS011;42086;53.170;6.980;2022-08-19T13:38:23;10.02;;;9.05;;
56183;SDS011;42086;53.170;6.980;2022-08-19T13:40:50;9.70;;;8.70;;
56183;SDS011;42086;53.170;6.980;2022-08-19T13:43:17;10.32;;;9.40;;
56183;SDS011;42086;53.170;6.980;2022-08-19T13:45:47;11.00;;;9.90;;
56183;SDS011;42086;53.170;6.980;2022-08-19T13:48:13;10.60;;;9.60;;
56183;SDS011;42086;53.170;6.980;2022-08-19T13:50:42;10.82;;;9.70;;
56183;SDS011;42086;53.170;6.980;2022-08-19T13:53:11;10.48;;;9.38;;
56183;SDS011;42086;53.170;6.980;2022-08-19T13:55:38;10.95;;;9.95;;
56183;SDS011;42086;53.170;6.980;2022-08-19T13:58:08;12.82;;;11.60;;
56183;SDS011;42086;53.170;6.980;2022-08-19T14:00:38;11.07;;;10.02;;
56183;SDS011;42086;53.170;6.980;2022-08-19T14:05:32;12.73;;;10.02;;
56183;SDS011;42086;53.170;6.980;2022-08-19T14:07:58;10.32;;;9.38;;
56183;SDS011;42086;53.170;6.980;2022-08-19T14:10:25;10.30;;;8.88;;
56183;SDS011;42086;53.170;6.980;2022-08-19T14:12:59;10.50;;;9.07;;
56183;SDS011;42086;53.170;6.980;2022-08-19T14:15:27;12.77;;;9.50;;
56183;SDS011;42086;53.170;6.980;2022-08-19T14:17:53;10.55;;;7.78;;
56183;SDS011;42086;53.170;6.980;2022-08-19T14:20:19;8.70;;;7.90;;
56183;SDS011;42086;53.170;6.980;2022-08-19T14:22:46;13.75;;;10.35;;
56183;SDS011;42086;53.170;6.980;2022-08-19T14:25:23;17.20;;;12.60;;
56183;SDS011;42086;53.170;6.980;2022-08-19T14:27:51;14.88;;;12.23;;
56183;SDS011;42086;53.170;6.980;2022-08-19T14:30:19;16.45;;;12.07;;
56183;SDS011;42086;53.170;6.980;2022-08-19T14:32:51;17.63;;;12.75;;
56183;SDS011;42086;53.170;6.980;2022-08-19T14:35:19;17.52;;;13.07;;
56183;SDS011;42086;53.170;6.980;2022-08-19T14:37:49;18.83;;;13.88;;
56183;SDS011;42086;53.170;6.980;2022-08-19T14:40:19;18.50;;;14.07;;
56183;SDS011;42086;53.170;6.980;2022-08-19T14:42:58;18.63;;;13.52;;
56183;SDS011;42086;53.170;6.980;2022-08-19T14:45:30;20.27;;;15.40;;
56183;SDS011;42086;53.170;6.980;2022-08-19T14:47:57;21.02;;;14.73;;
56183;SDS011;42086;53.170;6.980;2022-08-19T14:50:25;19.38;;;14.93;;
56183;SDS011;42086;53.170;6.980;2022-08-19T14:52:56;17.98;;;13.75;;
56183;SDS011;42086;53.170;6.980;2022-08-19T14:55:29;22.05;;;15.05;;
56183;SDS011;42086;53.170;6.980;2022-08-19T14:57:55;17.75;;;15.02;;